createdAt,value
2018-09-03T00:00:07.049Z,19.92
2018-09-03T00:02:35.996Z,19.94
2018-09-03T00:05:04.962Z,19.85
2018-09-03T00:07:34.227Z,19.79
2018-09-03T00:10:03.132Z,19.89
2018-09-03T00:12:32.161Z,19.87
2018-09-03T00:15:01.194Z,19.86
2018-09-03T00:17:30.175Z,19.92
2018-09-03T00:19:59.109Z,19.73
2018-09-03T00:22:28.052Z,19.67
2018-09-03T00:24:56.990Z,19.87
2018-09-03T00:27:26.036Z,19.84
2018-09-03T00:29:55.052Z,19.89
2018-09-03T00:32:29.361Z,19.74
2018-09-03T00:36:05.271Z,19.86
2018-09-03T00:38:39.581Z,19.61
2018-09-03T00:41:13.857Z,19.57
2018-09-03T00:43:48.295Z,19.60
2018-09-03T00:46:22.606Z,19.64
2018-09-03T00:48:51.591Z,19.60
2018-09-03T00:51:20.589Z,19.60
2018-09-03T00:53:49.539Z,19.51
2018-09-03T00:56:18.491Z,19.60
2018-09-03T00:58:47.451Z,19.66
2018-09-03T01:01:16.567Z,19.51
2018-09-03T01:03:45.710Z,19.57
2018-09-03T01:06:14.709Z,19.62
2018-09-03T01:08:43.704Z,19.53
2018-09-03T01:11:12.651Z,19.56
2018-09-03T01:13:41.651Z,19.50
2018-09-03T01:16:10.546Z,19.43
2018-09-03T01:18:44.812Z,19.31
2018-09-03T01:21:13.754Z,19.53
2018-09-03T01:23:42.744Z,19.39
2018-09-03T01:26:11.863Z,19.32
2018-09-03T01:28:40.833Z,19.38
2018-09-03T01:31:09.876Z,19.46
2018-09-03T01:33:38.847Z,19.26
2018-09-03T01:36:07.886Z,19.40
2018-09-03T01:38:37.063Z,19.20
2018-09-03T01:41:05.982Z,19.23
2018-09-03T01:43:35.015Z,19.25
2018-09-03T01:46:04.203Z,19.18
2018-09-03T01:48:33.306Z,19.04
2018-09-03T01:51:02.943Z,19.32
2018-09-03T01:53:31.975Z,19.28
2018-09-03T01:56:00.962Z,19.10
2018-09-03T01:58:29.950Z,19.25
2018-09-03T02:00:59.008Z,19.05
2018-09-03T02:03:28.849Z,19.21
2018-09-03T02:05:57.826Z,19.15
2018-09-03T02:08:26.954Z,19.15
2018-09-03T02:10:56.063Z,19.23
2018-09-03T02:13:25.328Z,19.22
2018-09-03T02:15:54.256Z,19.04
2018-09-03T02:18:23.200Z,19.00
2018-09-03T02:20:52.163Z,19.09
2018-09-03T02:23:21.319Z,19.06
2018-09-03T02:25:50.240Z,18.98
2018-09-03T02:28:19.285Z,18.91
2018-09-03T02:30:48.261Z,18.89
2018-09-03T02:33:17.342Z,18.79
2018-09-03T02:35:46.469Z,18.87
2018-09-03T02:38:16.070Z,18.77
2018-09-03T02:40:44.991Z,18.91
2018-09-03T02:43:14.271Z,18.77
2018-09-03T02:45:43.262Z,18.97
2018-09-03T02:48:12.279Z,18.95
2018-09-03T02:50:41.324Z,18.79
2018-09-03T02:53:10.264Z,18.88
2018-09-03T02:55:39.205Z,18.60
2018-09-03T02:58:08.198Z,18.72
2018-09-03T03:00:37.296Z,18.70
2018-09-03T03:03:06.313Z,18.43
2018-09-03T03:05:35.245Z,18.60
2018-09-03T03:08:04.304Z,18.41
2018-09-03T03:10:33.248Z,18.52
2018-09-03T03:13:02.341Z,18.65
2018-09-03T03:15:31.281Z,18.65
2018-09-03T03:18:00.230Z,18.71
2018-09-03T03:20:29.238Z,18.56
2018-09-03T03:22:58.192Z,18.59
2018-09-03T03:25:27.170Z,18.56
2018-09-03T03:27:56.096Z,18.45
2018-09-03T03:30:25.161Z,18.61
2018-09-03T03:32:54.148Z,18.61
2018-09-03T03:35:23.100Z,18.64
2018-09-03T03:37:52.074Z,18.65
2018-09-03T03:40:21.003Z,18.61
2018-09-03T03:42:49.939Z,18.67
2018-09-03T03:45:18.846Z,18.62
2018-09-03T03:47:47.758Z,18.50
2018-09-03T03:50:16.811Z,18.64
2018-09-03T03:52:45.733Z,18.62
2018-09-03T03:55:14.767Z,18.62
2018-09-03T03:57:43.694Z,18.68
2018-09-03T04:00:12.668Z,18.58
2018-09-03T04:02:41.635Z,18.57
2018-09-03T04:05:10.700Z,18.57
2018-09-03T04:07:39.674Z,18.61
2018-09-03T04:10:08.797Z,18.60
2018-09-03T04:12:37.722Z,18.71
2018-09-03T04:15:06.669Z,18.70
2018-09-03T04:17:35.653Z,18.51
2018-09-03T04:20:05.558Z,18.50
2018-09-03T04:22:34.655Z,18.63
2018-09-03T04:25:04.075Z,18.57
2018-09-03T04:27:33.069Z,18.48
2018-09-03T04:30:02.037Z,18.56
2018-09-03T04:32:31.109Z,18.61
2018-09-03T04:35:00.127Z,18.56
2018-09-03T04:37:29.027Z,18.70
2018-09-03T04:39:58.007Z,18.54
2018-09-03T04:42:26.893Z,18.71
2018-09-03T04:44:55.875Z,18.77
2018-09-03T04:47:24.807Z,18.78
2018-09-03T04:49:53.994Z,18.78
2018-09-03T04:52:22.975Z,18.68
2018-09-03T04:54:51.906Z,18.67
2018-09-03T04:57:20.844Z,18.72
2018-09-03T04:59:49.784Z,18.67
2018-09-03T05:02:18.722Z,18.63
2018-09-03T05:04:47.689Z,18.54
2018-09-03T05:07:16.662Z,18.59
2018-09-03T05:09:45.988Z,18.76
2018-09-03T05:12:14.899Z,18.70
2018-09-03T05:14:43.816Z,18.75
2018-09-03T05:17:12.882Z,18.73
2018-09-03T05:19:41.854Z,18.67
2018-09-03T05:22:10.755Z,18.68
2018-09-03T05:24:39.759Z,18.62
2018-09-03T05:27:08.768Z,18.78
2018-09-03T05:29:37.926Z,18.83
2018-09-03T05:32:06.890Z,18.89
2018-09-03T05:34:35.841Z,18.85
2018-09-03T05:37:04.781Z,18.82
2018-09-03T05:39:33.777Z,18.82
2018-09-03T05:42:02.795Z,18.92
2018-09-03T05:44:31.821Z,18.94
2018-09-03T05:47:00.753Z,18.86
2018-09-03T05:49:29.708Z,18.87
2018-09-03T05:51:58.670Z,18.83
2018-09-03T05:54:27.581Z,18.88
2018-09-03T05:56:56.526Z,18.99
2018-09-03T05:59:25.540Z,18.93
2018-09-03T06:01:54.434Z,18.80
2018-09-03T06:04:23.426Z,18.97
2018-09-03T06:06:52.390Z,19.05
2018-09-03T06:09:21.352Z,18.88
2018-09-03T06:11:50.324Z,18.98
2018-09-03T06:14:19.316Z,18.98
2018-09-03T06:16:48.209Z,19.01
2018-09-03T06:19:17.134Z,18.95
2018-09-03T06:21:46.213Z,18.96
2018-09-03T06:24:15.140Z,19.01
2018-09-03T06:26:44.116Z,19.07
2018-09-03T06:29:13.007Z,19.21
2018-09-03T06:31:41.957Z,19.12
2018-09-03T06:34:10.874Z,19.18
2018-09-03T06:36:39.865Z,19.22
2018-09-03T06:39:09.425Z,19.24
2018-09-03T06:41:38.321Z,19.17
2018-09-03T06:44:07.226Z,19.23
2018-09-03T06:46:36.534Z,19.13
2018-09-03T06:49:05.466Z,19.22
2018-09-03T06:51:34.397Z,19.27
2018-09-03T06:54:03.359Z,19.36
2018-09-03T06:56:32.279Z,19.38
2018-09-03T06:59:01.192Z,19.36
2018-09-03T07:01:30.387Z,19.38
2018-09-03T07:03:59.414Z,19.44
2018-09-03T07:06:28.321Z,19.38
2018-09-03T07:08:57.264Z,19.28
2018-09-03T07:11:26.182Z,19.38
2018-09-03T07:13:55.153Z,19.45
2018-09-03T07:16:24.078Z,19.35
2018-09-03T07:18:53.048Z,19.37
2018-09-03T07:21:21.969Z,19.39
2018-09-03T07:23:51.196Z,19.36
2018-09-03T07:26:20.114Z,19.43
2018-09-03T07:28:49.122Z,19.53
2018-09-03T07:31:18.045Z,19.61
2018-09-03T07:33:46.960Z,19.79
2018-09-03T07:36:15.929Z,19.85
2018-09-03T07:38:45.258Z,19.92
2018-09-03T07:41:14.199Z,19.84
2018-09-03T07:43:43.124Z,19.96
2018-09-03T07:46:12.085Z,20.04
2018-09-03T07:48:41.016Z,20.09
2018-09-03T07:51:10.444Z,20.15
2018-09-03T07:53:39.242Z,20.14
2018-09-03T07:56:08.172Z,20.04
2018-09-03T07:58:37.364Z,20.09
2018-09-03T08:01:06.474Z,20.13
2018-09-03T08:03:35.360Z,20.18
2018-09-03T08:06:04.265Z,20.24
2018-09-03T08:08:33.228Z,20.27
2018-09-03T08:11:02.481Z,20.24
2018-09-03T08:13:36.754Z,20.31
2018-09-03T08:16:06.049Z,20.52
2018-09-03T08:18:34.981Z,20.47
2018-09-03T08:21:04.119Z,20.50
2018-09-03T08:23:33.046Z,20.51
2018-09-03T08:26:01.954Z,20.55
2018-09-03T08:28:31.058Z,20.57
2018-09-03T08:31:00.162Z,20.64
2018-09-03T08:33:29.064Z,20.77
2018-09-03T08:35:58.583Z,20.81
2018-09-03T08:38:27.504Z,20.83
2018-09-03T08:40:56.437Z,20.94
2018-09-03T08:43:25.401Z,20.82
2018-09-03T08:45:54.411Z,20.89
2018-09-03T08:48:23.437Z,20.85
2018-09-03T08:50:52.330Z,20.91
2018-09-03T08:53:21.369Z,20.98
2018-09-03T08:55:50.274Z,20.88
2018-09-03T08:58:19.231Z,21.10
2018-09-03T09:00:48.217Z,21.16
2018-09-03T09:03:22.580Z,21.26
2018-09-03T09:05:51.571Z,21.24
2018-09-03T09:08:20.635Z,21.35
2018-09-03T09:10:49.597Z,21.25
2018-09-03T09:13:19.965Z,21.28
2018-09-03T09:15:49.458Z,21.38
2018-09-03T09:18:18.446Z,21.47
2018-09-03T09:20:47.427Z,21.60
2018-09-03T09:23:16.707Z,21.59
2018-09-03T09:25:45.667Z,21.56
2018-09-03T09:28:14.962Z,21.55
2018-09-03T09:30:43.910Z,21.80
2018-09-03T09:39:08.438Z,21.92
2018-09-03T09:41:37.356Z,21.81
2018-09-03T09:44:06.421Z,21.81
2018-09-03T09:46:35.391Z,22.02
2018-09-03T09:49:04.283Z,22.06
2018-09-03T09:51:33.238Z,22.19
2018-09-03T09:54:02.201Z,22.30
2018-09-03T09:56:31.107Z,22.14
2018-09-03T09:59:00.022Z,22.31
2018-09-03T10:01:37.445Z,22.48
2018-09-03T10:04:07.274Z,22.57
2018-09-03T10:06:36.574Z,22.54
2018-09-03T10:09:07.283Z,22.78
2018-09-03T10:11:36.264Z,22.65
2018-09-03T10:14:05.178Z,22.75
2018-09-03T10:16:34.266Z,22.99
2018-09-03T10:19:03.211Z,22.86
2018-09-03T10:21:32.450Z,23.04
2018-09-03T10:24:01.341Z,22.95
2018-09-03T10:26:30.281Z,23.34
2018-09-03T10:28:59.279Z,23.26
2018-09-03T10:31:28.213Z,23.41
2018-09-03T10:33:57.109Z,23.34
2018-09-03T10:36:26.077Z,23.38
2018-09-03T10:38:54.979Z,23.50
2018-09-03T10:41:23.955Z,23.45
2018-09-03T10:43:53.163Z,23.34
2018-09-03T10:46:22.447Z,23.38
2018-09-03T10:48:51.375Z,23.48
2018-09-03T10:51:20.315Z,23.59
2018-09-03T10:53:49.232Z,23.67
2018-09-03T10:56:18.148Z,23.64
2018-09-03T10:58:47.107Z,23.90
2018-09-03T11:01:16.004Z,23.80
2018-09-03T11:03:48.744Z,23.66
2018-09-03T11:06:17.918Z,23.84
2018-09-03T11:08:46.893Z,23.96
2018-09-03T11:11:15.795Z,24.04
2018-09-03T11:13:44.739Z,23.92
2018-09-03T11:16:13.692Z,24.23
2018-09-03T11:18:42.642Z,24.02
2018-09-03T11:21:11.695Z,24.25
2018-09-03T11:23:40.595Z,24.24
2018-09-03T11:26:09.533Z,24.06
2018-09-03T11:28:38.556Z,24.21
2018-09-03T11:31:07.495Z,24.26
2018-09-03T11:33:36.397Z,24.30
2018-09-03T11:36:05.315Z,24.45
2018-09-03T11:38:34.347Z,24.51
2018-09-03T11:41:03.243Z,24.55
2018-09-03T11:43:34.298Z,24.49
2018-09-03T11:46:03.231Z,24.92
2018-09-03T11:48:32.150Z,25.13
2018-09-03T11:51:01.199Z,25.01
2018-09-03T11:53:30.129Z,25.46
2018-09-03T11:55:59.443Z,24.98
2018-09-03T11:58:28.523Z,25.09
2018-09-03T12:00:59.748Z,25.11
2018-09-03T12:03:28.724Z,25.26
2018-09-03T12:05:57.682Z,25.19
2018-09-03T12:08:26.598Z,25.62
2018-09-03T12:10:55.513Z,25.73
2018-09-03T12:13:24.431Z,25.70
2018-09-03T12:16:24.297Z,26.00
2018-09-03T12:18:55.429Z,25.87
2018-09-03T12:21:24.387Z,25.61
2018-09-03T12:23:53.348Z,25.56
2018-09-03T12:26:22.294Z,25.56
2018-09-03T12:28:51.270Z,25.46
2018-09-03T12:31:20.230Z,25.55
2018-09-03T12:33:49.203Z,25.56
2018-09-03T12:36:18.107Z,25.79
2018-09-03T12:38:47.070Z,26.05
2018-09-03T12:41:16.020Z,25.80
2018-09-03T12:43:44.989Z,26.32
2018-09-03T12:46:14.306Z,26.24
2018-09-03T12:48:44.150Z,26.02
2018-09-03T12:51:13.080Z,26.01
2018-09-03T12:53:42.049Z,26.13
2018-09-03T12:56:10.997Z,26.24
2018-09-03T12:58:40.048Z,26.29
2018-09-03T13:01:08.954Z,26.35
2018-09-03T13:03:37.868Z,26.40
2018-09-03T13:06:06.840Z,26.56
2018-09-03T13:08:35.739Z,26.48
2018-09-03T13:11:04.713Z,26.51
2018-09-03T13:13:33.628Z,26.65
2018-09-03T13:16:02.659Z,26.46
2018-09-03T13:18:31.658Z,26.31
2018-09-03T13:21:00.561Z,26.22
2018-09-03T13:23:29.500Z,26.19
2018-09-03T13:25:58.872Z,26.11
2018-09-03T13:28:27.879Z,26.25
2018-09-03T13:30:56.821Z,26.20
2018-09-03T13:33:25.732Z,26.47
2018-09-03T13:35:54.662Z,26.64
2018-09-03T13:38:23.610Z,26.76
2018-09-03T13:40:52.548Z,26.83
2018-09-03T13:43:21.506Z,26.84
2018-09-03T13:45:50.457Z,26.67
2018-09-03T13:48:19.488Z,26.49
2018-09-03T13:50:48.460Z,26.38
2018-09-03T13:53:17.409Z,26.36
2018-09-03T13:55:46.367Z,26.20
2018-09-03T13:58:15.328Z,26.30
2018-09-03T14:00:44.406Z,26.28
2018-09-03T14:03:13.392Z,26.64
2018-09-03T14:05:42.274Z,26.60
2018-09-03T14:08:11.287Z,26.70
2018-09-03T14:10:40.250Z,26.95
2018-09-03T14:13:09.219Z,27.06
2018-09-03T14:15:38.189Z,27.26
2018-09-03T14:18:07.209Z,27.11
2018-09-03T14:20:36.608Z,27.41
2018-09-03T14:23:05.929Z,27.27
2018-09-03T14:25:34.885Z,27.50
2018-09-03T14:28:03.826Z,27.42
2018-09-03T14:30:32.798Z,27.40
2018-09-03T14:33:01.781Z,27.38
2018-09-03T14:35:30.695Z,27.40
2018-09-03T14:37:59.644Z,27.24
2018-09-03T14:40:28.941Z,27.21
2018-09-03T14:42:57.943Z,27.13
2018-09-03T14:45:26.933Z,26.99
2018-09-03T14:47:56.000Z,27.05
2018-09-03T14:50:25.564Z,27.06
2018-09-03T14:52:54.466Z,27.14
2018-09-03T14:55:23.620Z,27.14
2018-09-03T14:57:52.620Z,27.20
2018-09-03T15:00:21.552Z,27.19
2018-09-03T15:02:51.149Z,27.16
2018-09-03T15:05:20.084Z,27.21
2018-09-03T15:07:49.886Z,27.15
2018-09-03T15:10:18.835Z,27.26
2018-09-03T15:12:47.756Z,26.95
2018-09-03T15:15:16.687Z,26.95
2018-09-03T15:17:45.631Z,27.15
2018-09-03T15:20:14.605Z,27.13
2018-09-03T15:22:48.000Z,27.16
2018-09-03T15:25:17.098Z,27.17
2018-09-03T15:27:46.049Z,27.17
2018-09-03T15:30:15.153Z,27.27
2018-09-03T15:32:45.019Z,27.04
2018-09-03T15:35:14.109Z,26.93
2018-09-03T15:37:43.044Z,26.89
2018-09-03T15:40:12.084Z,26.83
2018-09-03T15:42:41.099Z,26.91
2018-09-03T15:45:10.095Z,27.05
2018-09-03T15:47:39.118Z,26.95
2018-09-03T15:50:08.085Z,27.02
2018-09-03T15:52:37.080Z,27.25
2018-09-03T15:55:06.489Z,27.22
2018-09-03T15:57:35.449Z,27.28
2018-09-03T16:00:05.125Z,27.29
2018-09-03T16:02:34.210Z,27.30
2018-09-03T16:05:03.235Z,27.21
2018-09-03T16:07:32.210Z,27.32
2018-09-03T16:10:01.495Z,27.27
2018-09-03T16:12:30.441Z,27.16
2018-09-03T16:14:59.433Z,27.19
2018-09-03T16:17:28.442Z,27.22
2018-09-03T16:19:57.541Z,27.10
2018-09-03T16:22:30.397Z,27.16
2018-09-03T16:24:59.396Z,27.07
2018-09-03T16:27:28.485Z,27.05
2018-09-03T16:29:57.502Z,27.08
2018-09-03T16:32:26.453Z,27.02
2018-09-03T16:34:55.442Z,27.11
2018-09-03T16:37:24.453Z,27.02
2018-09-03T16:39:53.442Z,27.00
2018-09-03T16:42:22.435Z,26.93
2018-09-03T16:44:51.455Z,26.98
2018-09-03T16:47:20.414Z,26.98
2018-09-03T16:49:49.393Z,26.89
2018-09-03T16:52:18.413Z,26.92
2018-09-03T16:54:50.838Z,26.87
2018-09-03T16:57:19.855Z,26.70
2018-09-03T16:59:48.886Z,26.72
2018-09-03T17:02:17.948Z,26.66
2018-09-03T17:04:47.105Z,26.65
2018-09-03T17:07:16.366Z,26.59
2018-09-03T17:09:45.336Z,26.56
2018-09-03T17:12:14.297Z,26.51
2018-09-03T17:14:43.285Z,26.57
2018-09-03T17:17:12.307Z,26.36
2018-09-03T17:19:41.274Z,26.40
2018-09-03T17:22:10.348Z,26.40
2018-09-03T17:24:39.587Z,26.24
2018-09-03T17:27:08.537Z,26.27
2018-09-03T17:29:38.700Z,26.19
2018-09-03T17:32:07.686Z,26.30
2018-09-03T17:34:36.671Z,26.16
2018-09-03T17:37:05.712Z,26.17
2018-09-03T17:39:34.693Z,26.08
2018-09-03T17:42:04.033Z,26.02
2018-09-03T17:44:33.021Z,26.03
2018-09-03T17:47:02.632Z,26.07
2018-09-03T17:49:31.774Z,25.89
2018-09-03T17:52:00.724Z,25.85
2018-09-03T17:54:29.987Z,25.81
2018-09-03T17:56:58.973Z,25.88
2018-09-03T17:59:27.962Z,25.77
2018-09-03T18:01:56.939Z,25.73
2018-09-03T18:04:25.896Z,25.79
2018-09-03T18:06:54.866Z,25.70
2018-09-03T18:09:23.832Z,25.71
2018-09-03T18:11:52.817Z,25.74
2018-09-03T18:14:21.849Z,25.73
2018-09-03T18:16:51.354Z,25.63
2018-09-03T18:19:20.377Z,25.71
2018-09-03T18:21:49.510Z,25.59
2018-09-03T18:24:18.411Z,25.63
2018-09-03T18:26:47.407Z,25.34
2018-09-03T18:29:16.426Z,25.48
2018-09-03T18:31:45.407Z,25.47
2018-09-03T18:34:14.386Z,25.38
2018-09-03T18:36:43.526Z,25.33
2018-09-03T18:39:12.707Z,25.29
2018-09-03T18:41:41.765Z,25.30
2018-09-03T18:44:10.723Z,25.17
2018-09-03T18:46:39.711Z,25.19
2018-09-03T18:49:08.818Z,25.15
2018-09-03T18:51:37.806Z,25.24
2018-09-03T18:54:06.765Z,25.14
2018-09-03T18:56:35.762Z,25.18
2018-09-03T18:59:04.944Z,25.11
2018-09-03T19:01:33.933Z,24.96
2018-09-03T19:04:02.897Z,24.89
2018-09-03T19:06:31.894Z,24.74
2018-09-03T19:09:00.894Z,24.86
2018-09-03T19:11:30.992Z,24.84
2018-09-03T19:13:59.897Z,24.84
2018-09-03T19:16:28.880Z,24.59
2018-09-03T19:18:57.949Z,24.69
2018-09-03T19:21:26.936Z,24.73
2018-09-03T19:23:55.881Z,24.59
2018-09-03T19:26:24.862Z,24.61
2018-09-03T19:28:53.864Z,24.62
2018-09-03T19:31:23.103Z,24.49
2018-09-03T19:33:52.145Z,24.54
2018-09-03T19:36:21.105Z,24.49
2018-09-03T19:38:50.156Z,24.31
2018-09-03T19:41:19.524Z,24.22
2018-09-03T19:43:48.675Z,24.22
2018-09-03T19:46:17.738Z,24.08
2018-09-03T19:48:46.853Z,24.09
2018-09-03T19:51:15.781Z,23.94
2018-09-03T19:53:44.926Z,24.01
2018-09-03T19:56:13.895Z,23.99
2018-09-03T19:58:43.113Z,24.07
2018-09-03T20:01:12.090Z,24.07
2018-09-03T20:03:41.127Z,23.98
2018-09-03T20:06:10.188Z,24.12
2018-09-03T20:08:39.381Z,23.98
2018-09-03T20:11:08.697Z,23.83
2018-09-03T20:13:37.867Z,23.79
2018-09-03T20:16:06.837Z,23.61
2018-09-03T20:18:35.978Z,23.73
2018-09-03T20:21:05.047Z,23.56
2018-09-03T20:23:34.289Z,23.44
2018-09-03T20:26:03.129Z,23.47
2018-09-03T20:28:32.140Z,23.50
2018-09-03T20:31:01.046Z,23.62
2018-09-03T20:33:30.877Z,23.58
2018-09-03T20:36:00.283Z,23.42
2018-09-03T20:38:30.258Z,23.30
2018-09-03T20:40:59.247Z,23.31
2018-09-03T20:43:28.261Z,23.38
2018-09-03T20:45:57.255Z,23.34
2018-09-03T20:48:26.234Z,23.13
2018-09-03T20:50:55.206Z,23.26
2018-09-03T20:53:24.141Z,23.35
2018-09-03T20:55:53.078Z,23.12
2018-09-03T20:58:22.047Z,23.10
2018-09-03T21:00:51.126Z,23.04
2018-09-03T21:03:20.053Z,22.90
2018-09-03T21:05:49.066Z,23.01
2018-09-03T21:08:18.036Z,23.03
2018-09-03T21:10:47.136Z,23.08
2018-09-03T21:13:16.047Z,22.91
2018-09-03T21:15:44.975Z,23.16
2018-09-03T21:18:14.188Z,22.96
2018-09-03T21:20:43.098Z,22.97
2018-09-03T21:23:12.048Z,22.94
2018-09-03T21:25:41.151Z,22.72
2018-09-03T21:28:10.107Z,22.94
2018-09-03T21:30:39.054Z,22.65
2018-09-03T21:33:08.197Z,22.70
2018-09-03T21:35:37.173Z,22.52
2018-09-03T21:38:06.147Z,22.56
2018-09-03T21:40:35.123Z,22.50
2018-09-03T21:43:04.057Z,22.71
2018-09-03T21:45:33.186Z,22.37
2018-09-03T21:48:02.113Z,22.64
2018-09-03T21:50:31.077Z,22.55
2018-09-03T21:53:00.065Z,22.45
2018-09-03T21:55:29.065Z,22.30
2018-09-03T21:57:58.262Z,22.42
2018-09-03T22:00:27.299Z,22.52
2018-09-03T22:02:56.217Z,22.31
2018-09-03T22:05:25.234Z,22.29
2018-09-03T22:07:54.202Z,22.46
2018-09-03T22:10:23.258Z,22.61
2018-09-03T22:12:52.261Z,22.60
2018-09-03T22:15:21.252Z,22.40
2018-09-03T22:17:50.221Z,22.39
2018-09-03T22:20:19.176Z,22.31
2018-09-03T22:22:48.249Z,22.01
2018-09-03T22:25:17.225Z,22.26
2018-09-03T22:27:46.161Z,22.32
2018-09-03T22:32:52.869Z,22.29
2018-09-03T22:35:21.840Z,22.18
2018-09-03T22:37:50.807Z,22.15
2018-09-03T22:40:20.042Z,21.97
2018-09-03T22:42:49.062Z,22.01
2018-09-03T22:45:17.971Z,22.04
2018-09-03T22:47:46.891Z,22.09
2018-09-03T22:50:15.890Z,21.96
2018-09-03T22:52:45.206Z,22.11
2018-09-03T22:55:14.261Z,22.02
2018-09-03T22:57:43.260Z,21.98
2018-09-03T23:00:12.223Z,21.96
2018-09-03T23:02:46.076Z,21.60
2018-09-03T23:05:15.006Z,21.81
2018-09-03T23:07:43.958Z,21.70
2018-09-03T23:10:12.867Z,21.75
2018-09-03T23:12:41.875Z,21.55
2018-09-03T23:15:10.850Z,21.76
2018-09-03T23:17:39.810Z,21.62
2018-09-03T23:20:08.750Z,21.82
2018-09-03T23:22:37.736Z,21.73
2018-09-03T23:25:06.692Z,21.40
2018-09-03T23:27:35.656Z,21.47
2018-09-03T23:30:04.591Z,21.25
2018-09-03T23:32:33.532Z,21.27
2018-09-03T23:35:02.479Z,21.18
2018-09-03T23:37:31.423Z,21.26
2018-09-03T23:40:00.385Z,21.20
2018-09-03T23:42:29.368Z,20.90
2018-09-03T23:44:58.275Z,20.82
2018-09-03T23:47:27.218Z,20.89
2018-09-03T23:49:56.236Z,20.74
2018-09-03T23:52:25.195Z,20.96
2018-09-03T23:54:54.718Z,20.63
2018-09-03T23:57:23.743Z,20.86
2018-09-03T23:59:52.786Z,20.80
